Página principal
METAR-TAF:

METAR-TAF

Aeroportos :

Funafuti, Tuvalu

latitude: 08-31S, longitude: 179-13E, altura: 1 m

Observação actual do tempo

O boletim foi feito há 52 minutos, às 15:00 UTC
Vento 4 kt de oeste
Temperatura 28°C
Humidade 74%
Pressão 1009 hPa
Visibilidade 10 km ou mais
Poucas nuvensa uma altura de 2000 ft
Nuvens fragmentadasa uma altura de 11000 ft

METAR: NGFU 231500Z 28004KT 9999 FEW020 BKN110 28/23 Q1009

Hora: 03:52 (15:52 UTC)

Previsão

O boletim foi feito há 4 horas e 24 minutos, às 11:28 UTC
Previsão válida de 23 às 12 UTC a 24 às 12 UTC
Vento 5 kt de es-nordeste
Visibilidade 10 km ou mais
Poucas nuvensa uma altura de 2000 ft

TAF: NGFU 231128Z 2312/2412 07005KT 9999 FEW020

Observações e previsões do tempo de mais de 4000 aeroportos (mensagens METAR e TAF).

As estações disponíveis são os pontos amarelos e vermelhos sobre o mapa.

Mova o rato sobre o mapa para ver o nome da estação.

Depois clique no ponto para visualizar as observações e previsões meteorológicas.

Para alterar o mapa : clique nos botões verdes com uma cruz preta para aumentar o zoom; no botão verde com uma pitada de zoom; ou nas setas verdes para mapas adjacentes.


METAR-TAF: